createdAt,value
2023-03-26T00:01:37.067Z,35.85
2023-03-26T00:04:05.929Z,33.88
2023-03-26T00:06:37.825Z,32.95
2023-03-26T00:09:06.586Z,32.38
2023-03-26T00:11:33.872Z,32.67
2023-03-26T00:14:00.995Z,33.90
2023-03-26T00:16:29.834Z,32.65
2023-03-26T00:18:57.989Z,31.17
2023-03-26T00:21:29.198Z,31.95
2023-03-26T00:24:01.550Z,33.10
2023-03-26T00:26:31.271Z,32.08
2023-03-26T00:28:58.867Z,30.83
2023-03-26T00:31:29.594Z,29.15
2023-03-26T00:33:56.821Z,29.95
2023-03-26T00:36:27.739Z,29.33
2023-03-26T00:38:55.070Z,33.78
2023-03-26T00:41:28.542Z,33.30
2023-03-26T00:43:57.323Z,30.13
2023-03-26T00:46:30.039Z,27.40
2023-03-26T00:49:00.345Z,25.15
2023-03-26T00:51:28.107Z,25.27
2023-03-26T00:53:55.659Z,23.70
2023-03-26T00:56:22.808Z,25.35
2023-03-26T00:58:50.375Z,30.25
2023-03-26T01:01:28.759Z,30.05
2023-03-26T01:04:08.416Z,35.25
2023-03-26T01:06:37.330Z,37.47
2023-03-26T01:09:16.385Z,35.75
2023-03-26T01:11:43.505Z,38.33
2023-03-26T01:14:30.971Z,33.10
2023-03-26T01:16:59.835Z,29.05
2023-03-26T01:19:45.421Z,26.85
2023-03-26T01:22:20.306Z,24.60
2023-03-26T01:24:53.491Z,26.63
2023-03-26T01:27:26.030Z,28.73
2023-03-26T01:29:57.894Z,28.73
2023-03-26T01:32:28.030Z,31.15
2023-03-26T01:35:24.947Z,32.35
2023-03-26T01:38:11.153Z,29.80
2023-03-26T01:41:22.763Z,26.38
2023-03-26T01:44:21.682Z,23.02
2023-03-26T01:46:48.742Z,23.20
2023-03-26T01:49:16.001Z,20.83
2023-03-26T01:51:43.123Z,21.35
2023-03-26T01:54:13.884Z,20.10
2023-03-26T01:57:04.348Z,24.35
2023-03-26T01:59:49.132Z,25.40
2023-03-26T02:02:43.217Z,23.38
2023-03-26T02:05:16.457Z,24.85
2023-03-26T02:08:06.377Z,25.35
2023-03-26T02:10:36.921Z,27.20
2023-03-26T02:13:03.965Z,28.48
2023-03-26T02:15:31.139Z,31.00
2023-03-26T02:17:59.875Z,29.58
2023-03-26T02:20:30.268Z,26.73
2023-03-26T02:22:57.694Z,28.15
2023-03-26T02:25:24.727Z,28.83
2023-03-26T02:27:52.428Z,28.85
2023-03-26T02:30:21.798Z,28.33
2023-03-26T02:32:52.472Z,28.27
2023-03-26T02:37:51.139Z,22.60
2023-03-26T02:40:22.515Z,22.38
2023-03-26T02:42:49.737Z,21.60
2023-03-26T02:45:16.893Z,22.15
2023-03-26T02:47:46.160Z,21.77
2023-03-26T02:50:13.387Z,20.30
2023-03-26T02:52:40.484Z,20.90
2023-03-26T02:55:07.873Z,22.90
2023-03-26T02:57:34.978Z,26.17
2023-03-26T03:00:06.015Z,26.40
2023-03-26T03:02:38.905Z,29.17
2023-03-26T03:05:08.108Z,30.20
2023-03-26T03:07:38.016Z,28.50
2023-03-26T03:10:08.882Z,27.08
2023-03-26T03:12:36.946Z,27.65
2023-03-26T03:15:04.347Z,28.02
2023-03-26T03:17:31.497Z,27.38
2023-03-26T03:19:58.594Z,27.40
2023-03-26T03:22:25.621Z,28.40
2023-03-26T03:24:52.690Z,27.60
2023-03-26T03:27:21.576Z,28.35
2023-03-26T03:29:48.633Z,31.05
2023-03-26T03:32:15.990Z,31.45
2023-03-26T03:34:43.061Z,31.63
2023-03-26T03:37:10.118Z,31.65
2023-03-26T03:39:37.120Z,31.63
2023-03-26T03:42:06.274Z,32.20
2023-03-26T03:44:33.394Z,33.35
2023-03-26T03:47:00.654Z,31.35
2023-03-26T03:49:27.807Z,29.67
2023-03-26T03:51:55.174Z,29.45
2023-03-26T03:54:22.206Z,29.27
2023-03-26T03:56:49.302Z,28.50
2023-03-26T03:59:16.428Z,26.50
2023-03-26T04:01:47.553Z,26.95
2023-03-26T04:04:14.634Z,25.17
2023-03-26T04:06:41.704Z,25.27
2023-03-26T04:09:10.389Z,24.15
2023-03-26T04:11:37.475Z,24.25
2023-03-26T04:14:04.587Z,23.00
2023-03-26T04:16:31.639Z,21.48
2023-03-26T04:18:58.765Z,20.67
2023-03-26T04:21:26.437Z,21.00
2023-03-26T04:23:54.407Z,20.30
2023-03-26T04:26:21.554Z,19.60
2023-03-26T04:28:50.185Z,19.35
2023-03-26T04:31:25.013Z,16.92
2023-03-26T04:33:55.443Z,18.98
2023-03-26T04:36:30.227Z,18.48
2023-03-26T04:38:58.601Z,19.70
2023-03-26T04:41:26.503Z,18.35
2023-03-26T04:43:55.628Z,20.17
2023-03-26T04:46:23.637Z,20.00
2023-03-26T04:48:51.536Z,19.67
2023-03-26T04:51:19.425Z,20.80
2023-03-26T04:53:54.218Z,19.98
2023-03-26T04:56:44.243Z,18.08
2023-03-26T04:59:13.998Z,20.40
2023-03-26T05:01:41.964Z,23.37
2023-03-26T05:04:09.083Z,17.60
2023-03-26T05:06:38.192Z,15.75
2023-03-26T05:09:05.156Z,15.50
2023-03-26T05:11:32.382Z,16.67
2023-03-26T05:13:59.455Z,16.75
2023-03-26T05:16:26.630Z,16.52
2023-03-26T05:18:54.242Z,17.70
2023-03-26T05:21:22.533Z,16.77
2023-03-26T05:23:49.623Z,19.10
2023-03-26T05:26:16.590Z,17.83
2023-03-26T05:28:43.645Z,14.55
2023-03-26T05:31:10.974Z,15.55
2023-03-26T05:33:38.489Z,15.95
2023-03-26T05:36:09.429Z,17.23
2023-03-26T05:38:39.666Z,16.15
2023-03-26T05:41:08.307Z,15.20
2023-03-26T05:43:35.463Z,16.98
2023-03-26T05:46:03.907Z,16.00
2023-03-26T05:48:31.010Z,15.95
2023-03-26T05:50:58.219Z,15.25
2023-03-26T05:53:26.284Z,19.05
2023-03-26T05:56:00.946Z,18.65
2023-03-26T05:58:32.565Z,19.02
2023-03-26T06:01:02.820Z,23.63
2023-03-26T06:03:29.913Z,20.65
2023-03-26T06:05:57.294Z,21.38
2023-03-26T06:08:24.341Z,20.98
2023-03-26T06:10:51.422Z,17.55
2023-03-26T06:13:19.259Z,18.42
2023-03-26T06:15:46.717Z,19.42
2023-03-26T06:18:13.906Z,20.48
2023-03-26T06:20:57.077Z,20.40
2023-03-26T06:23:24.525Z,17.92
2023-03-26T06:25:51.730Z,15.50
2023-03-26T06:28:18.828Z,16.13
2023-03-26T06:30:46.084Z,13.65
2023-03-26T06:33:13.190Z,13.52
2023-03-26T06:35:40.691Z,13.75
2023-03-26T06:38:07.986Z,14.63
2023-03-26T06:40:35.377Z,14.95
2023-03-26T06:43:08.557Z,16.52
2023-03-26T06:45:38.323Z,15.35
2023-03-26T06:48:07.238Z,18.00
2023-03-26T06:50:34.690Z,18.38
2023-03-26T06:53:02.063Z,15.13
2023-03-26T06:55:32.193Z,16.20
2023-03-26T06:57:59.537Z,16.13
2023-03-26T07:00:26.630Z,17.88
2023-03-26T07:02:54.047Z,17.73
2023-03-26T07:05:21.528Z,17.85
2023-03-26T07:07:49.982Z,18.02
2023-03-26T07:10:17.267Z,18.00
2023-03-26T07:12:44.639Z,18.70
2023-03-26T07:15:12.041Z,17.00
2023-03-26T07:17:39.647Z,15.40
2023-03-26T07:20:11.623Z,15.13
2023-03-26T07:22:41.690Z,12.95
2023-03-26T07:25:12.242Z,14.68
2023-03-26T07:28:03.446Z,15.18
2023-03-26T07:30:53.703Z,15.55
2023-03-26T07:33:31.152Z,20.02
2023-03-26T07:36:04.915Z,14.00
2023-03-26T07:38:53.483Z,13.13
2023-03-26T07:41:37.003Z,15.95
2023-03-26T07:44:22.259Z,16.08
2023-03-26T07:46:50.705Z,18.95
2023-03-26T07:49:21.312Z,15.88
2023-03-26T07:51:49.734Z,15.40
2023-03-26T07:54:19.670Z,16.58
2023-03-26T07:56:58.058Z,14.88
2023-03-26T07:59:45.095Z,14.55
2023-03-26T08:02:24.830Z,15.32
2023-03-26T08:05:13.141Z,14.65
2023-03-26T08:08:09.481Z,14.15
2023-03-26T08:11:22.899Z,14.90
2023-03-26T08:14:28.284Z,15.40
2023-03-26T08:17:08.150Z,13.20
2023-03-26T08:19:38.998Z,13.53
2023-03-26T08:22:14.018Z,14.32
2023-03-26T08:25:07.036Z,11.25
2023-03-26T08:27:41.634Z,11.77
2023-03-26T08:30:23.066Z,12.57
2023-03-26T08:33:17.212Z,10.68
2023-03-26T08:35:45.727Z,12.15
2023-03-26T08:38:14.362Z,11.95
2023-03-26T08:41:00.166Z,14.90
2023-03-26T08:43:48.576Z,16.23
2023-03-26T08:47:03.025Z,18.10
2023-03-26T08:50:04.605Z,19.92
2023-03-26T08:53:25.814Z,24.42
2023-03-26T08:55:58.435Z,18.67
2023-03-26T08:58:48.167Z,10.77
2023-03-26T09:01:34.207Z,9.27
2023-03-26T09:04:33.521Z,8.20
2023-03-26T09:30:41.574Z,6.30
2023-03-26T09:33:43.175Z,5.68
2023-03-26T09:36:27.988Z,4.47
2023-03-26T09:39:00.730Z,4.43
2023-03-26T09:41:44.245Z,3.88
2023-03-26T09:44:26.730Z,3.90
2023-03-26T09:47:10.007Z,3.72
2023-03-26T09:49:58.773Z,3.10
2023-03-26T09:53:07.579Z,2.80
2023-03-26T09:55:58.792Z,2.70
2023-03-26T10:05:23.660Z,2.17
2023-03-26T10:08:11.191Z,2.28
2023-03-26T10:10:56.857Z,2.13
2023-03-26T10:13:43.472Z,1.55
2023-03-26T10:40:59.851Z,1.88
2023-03-26T13:04:24.633Z,1.38
2023-03-26T13:07:10.614Z,1.77
2023-03-26T13:09:51.054Z,1.63
2023-03-26T13:12:28.625Z,1.90
2023-03-26T13:15:18.557Z,1.33
2023-03-26T13:18:25.124Z,1.65
2023-03-26T13:21:31.134Z,1.65
2023-03-26T13:24:23.095Z,1.77
2023-03-26T13:27:26.611Z,1.77
2023-03-26T13:33:59.591Z,2.08
2023-03-26T13:37:05.345Z,3.70
2023-03-26T13:40:14.401Z,1.77
2023-03-26T13:52:10.627Z,2.40
2023-03-26T14:00:27.308Z,1.88
2023-03-26T14:06:13.148Z,2.20
2023-03-26T14:08:43.731Z,1.98
2023-03-26T14:16:58.322Z,2.42
2023-03-26T14:24:59.031Z,2.58
2023-03-26T14:27:52.754Z,3.00
2023-03-26T15:10:26.973Z,3.20
2023-03-26T15:13:25.610Z,2.83
2023-03-26T15:16:17.899Z,2.92
2023-03-26T15:19:19.485Z,2.85
2023-03-26T15:22:13.269Z,3.55
2023-03-26T15:25:25.656Z,3.60
2023-03-26T15:33:35.162Z,4.10
2023-03-26T15:37:00.958Z,4.38
2023-03-26T15:40:20.159Z,4.13
2023-03-26T15:44:22.675Z,4.75
2023-03-26T15:47:04.449Z,4.43
2023-03-26T15:49:54.046Z,4.35
2023-03-26T15:52:49.457Z,5.30
2023-03-26T15:55:16.876Z,5.68
2023-03-26T15:57:49.490Z,5.43
2023-03-26T16:00:29.441Z,5.75
2023-03-26T16:03:47.131Z,6.78
2023-03-26T16:15:27.750Z,6.25
2023-03-26T16:18:23.169Z,7.18
2023-03-26T16:21:31.919Z,8.05
2023-03-26T16:24:10.949Z,10.15
2023-03-26T16:26:55.897Z,13.98
2023-03-26T16:32:34.663Z,15.32
2023-03-26T16:35:17.203Z,8.85
2023-03-26T16:38:13.075Z,10.27
2023-03-26T16:55:54.247Z,10.80
2023-03-26T17:02:23.433Z,14.70
2023-03-26T18:01:32.510Z,17.25
2023-03-26T18:04:04.262Z,17.58
2023-03-26T18:06:50.278Z,15.88
2023-03-26T18:17:40.587Z,15.30
2023-03-26T18:20:37.271Z,14.05
2023-03-26T18:32:04.313Z,16.42
2023-03-26T20:10:37.931Z,51.30
2023-03-26T20:23:59.665Z,64.03
2023-03-26T20:29:13.139Z,70.90
2023-03-26T20:31:43.895Z,70.38
2023-03-26T20:42:37.836Z,86.10
2023-03-26T20:45:53.159Z,91.03
2023-03-26T21:45:12.891Z,52.05
2023-03-26T21:48:01.190Z,49.78
2023-03-26T21:50:40.105Z,42.45
2023-03-26T21:55:53.124Z,49.80
2023-03-26T22:09:12.932Z,42.42
2023-03-26T22:11:47.308Z,44.55
2023-03-26T22:14:15.134Z,44.33
2023-03-26T22:19:08.902Z,44.92
2023-03-26T22:21:42.277Z,44.22
2023-03-26T22:24:12.484Z,41.60
2023-03-26T22:29:29.005Z,42.50
2023-03-26T23:24:08.794Z,35.42
2023-03-26T23:26:49.545Z,35.55
2023-03-26T23:29:27.251Z,40.55
2023-03-26T23:31:56.383Z,36.47
2023-03-26T23:34:23.855Z,34.78
2023-03-26T23:36:54.114Z,31.17
2023-03-26T23:50:21.749Z,28.88
2023-03-26T23:52:55.270Z,27.33
2023-03-26T23:55:29.938Z,29.60
2023-03-26T23:58:09.693Z,29.15
